Coal Creek, Washington
Current Conditions -  °F | °C
As of 1:53 PM on Thursday 27 Nov 2014 (Local Time) from KRNT Reporting Station
Overcast Overcast  
Wind Chill: 58°   Ceiling: 3300
Heat Index: 58°   Visibility: 10mi
Dew Point: 52°   Wind: 14mph
Humidity: 81%   Direction: 160°SSE
Pressure: 29.79"   Gusts: 23mph
Location:  47.4953°N, 121.984°W
Report Text: KRNT 272153Z 16012G20KT 10SM SCT022 OVC033 14/11 A2979 RMK AO2 SLP094 T01440111
Loading
Personal Weather Stations






























Interactive Weather Map New forecast layout! Learn more

10-Day Weather Forecast

Advertisements
Track Severe Weather on mobile